createdAt,value
2023-04-06T00:02:04.619Z,17.60
2023-04-06T00:06:08.300Z,22.40
2023-04-06T00:10:11.755Z,22.50
2023-04-06T00:14:15.119Z,21.30
2023-04-06T00:18:18.350Z,22.40
2023-04-06T00:22:21.665Z,29.80
2023-04-06T00:26:25.098Z,24.20
2023-04-06T00:30:28.705Z,25.20
2023-04-06T00:34:31.757Z,26.50
2023-04-06T00:38:34.881Z,26.00
2023-04-06T00:42:39.857Z,21.00
2023-04-06T00:46:43.063Z,23.90
2023-04-06T00:50:46.760Z,26.90
2023-04-06T00:54:51.034Z,23.10
2023-04-06T00:58:54.862Z,27.20
2023-04-06T01:03:01.025Z,23.50
2023-04-06T01:07:05.394Z,21.30
2023-04-06T01:11:08.649Z,19.90
2023-04-06T01:15:12.719Z,17.90
2023-04-06T01:19:16.115Z,21.40
2023-04-06T01:23:19.381Z,24.10
2023-04-06T01:27:22.835Z,19.60
2023-04-06T01:31:26.255Z,22.00
2023-04-06T01:35:30.078Z,31.10
2023-04-06T01:39:33.206Z,18.60
2023-04-06T01:43:36.986Z,25.00
2023-04-06T01:47:40.167Z,25.00
2023-04-06T01:51:48.802Z,23.90
2023-04-06T01:55:51.876Z,20.90
2023-04-06T01:59:56.054Z,23.20
2023-04-06T02:03:59.216Z,22.60
2023-04-06T02:08:02.224Z,21.70
2023-04-06T02:12:06.085Z,22.00
2023-04-06T02:16:17.545Z,23.70
2023-04-06T02:20:20.678Z,19.60
2023-04-06T02:24:24.073Z,25.50
2023-04-06T02:28:27.566Z,25.20
2023-04-06T02:32:31.163Z,26.20
2023-04-06T02:36:34.293Z,23.90
2023-04-06T02:40:37.545Z,23.00
2023-04-06T02:44:40.898Z,23.50
2023-04-06T02:48:44.046Z,23.90
2023-04-06T02:52:47.055Z,25.30
2023-04-06T02:56:50.544Z,24.90
2023-04-06T03:00:53.844Z,23.80
2023-04-06T03:04:57.167Z,27.30
2023-04-06T03:09:00.134Z,23.60
2023-04-06T03:13:03.850Z,23.60
2023-04-06T03:17:07.009Z,23.70
2023-04-06T03:21:09.938Z,26.10
2023-04-06T03:25:13.360Z,24.50
2023-04-06T03:29:17.109Z,26.40
2023-04-06T03:33:21.333Z,27.50
2023-04-06T03:37:24.291Z,28.70
2023-04-06T03:41:27.572Z,22.40
2023-04-06T03:45:31.123Z,22.20
2023-04-06T03:49:34.727Z,25.20
2023-04-06T03:53:38.302Z,24.50
2023-04-06T03:57:41.629Z,24.80
2023-04-06T04:01:45.074Z,26.40
2023-04-06T04:05:48.447Z,22.50
2023-04-06T04:09:51.833Z,25.80
2023-04-06T04:13:54.816Z,24.00
2023-04-06T04:17:59.808Z,23.80
2023-04-06T04:22:06.051Z,24.00
2023-04-06T04:26:11.200Z,27.30
2023-04-06T04:30:14.375Z,22.50
2023-04-06T04:34:18.317Z,21.50
2023-04-06T04:38:22.365Z,26.00
2023-04-06T04:42:25.690Z,23.50
2023-04-06T04:46:29.276Z,22.20
2023-04-06T04:50:33.262Z,24.20
2023-04-06T04:54:36.532Z,23.90
2023-04-06T04:58:40.023Z,24.00
2023-04-06T05:02:43.181Z,23.90
2023-04-06T05:06:46.574Z,27.20
2023-04-06T05:10:50.843Z,26.50
2023-04-06T05:14:55.310Z,25.80
2023-04-06T05:18:58.583Z,24.20
2023-04-06T05:23:02.581Z,21.50
2023-04-06T05:27:06.014Z,20.30
2023-04-06T05:31:29.108Z,20.50
2023-04-06T05:35:32.319Z,24.30
2023-04-06T05:39:35.533Z,24.80
2023-04-06T05:43:38.592Z,24.40
2023-04-06T05:47:41.827Z,27.20
2023-04-06T05:51:45.108Z,23.20
2023-04-06T05:55:48.643Z,22.70
2023-04-06T05:59:56.402Z,21.30
2023-04-06T06:04:01.242Z,22.60
2023-04-06T06:08:05.264Z,23.00
2023-04-06T06:12:08.930Z,20.90
2023-04-06T06:16:12.076Z,21.50
2023-04-06T06:20:16.469Z,22.10
2023-04-06T06:24:19.581Z,23.40
2023-04-06T06:28:22.670Z,22.20
2023-04-06T06:32:25.979Z,19.30
2023-04-06T06:36:31.723Z,20.40
2023-04-06T06:40:35.326Z,24.90
2023-04-06T06:44:40.599Z,33.10
2023-04-06T06:48:45.642Z,27.70
2023-04-06T06:52:48.809Z,30.60
2023-04-06T06:56:52.861Z,31.40
2023-04-06T07:01:00.045Z,29.00
2023-04-06T07:05:10.177Z,35.60
2023-04-06T07:09:20.117Z,33.30
2023-04-06T07:13:24.287Z,37.20
2023-04-06T07:17:27.651Z,37.10
2023-04-06T07:21:31.027Z,39.20
2023-04-06T07:25:35.233Z,36.00
2023-04-06T07:29:38.406Z,41.20
2023-04-06T07:33:41.706Z,40.40
2023-04-06T07:37:45.089Z,41.20
2023-04-06T07:41:48.555Z,36.60
2023-04-06T07:45:52.043Z,38.00
2023-04-06T07:49:57.168Z,37.30
2023-04-06T07:54:00.184Z,34.90
2023-04-06T07:58:04.697Z,37.50
2023-04-06T08:02:08.218Z,40.50
2023-04-06T08:06:11.746Z,35.40
2023-04-06T08:10:14.897Z,36.20
2023-04-06T08:14:18.514Z,39.60
2023-04-06T08:18:21.666Z,36.10
2023-04-06T08:22:25.257Z,39.30
2023-04-06T08:26:28.354Z,39.30
2023-04-06T08:30:31.967Z,37.20
2023-04-06T08:34:35.153Z,37.30
2023-04-06T08:38:38.358Z,38.90
2023-04-06T08:42:50.706Z,37.20
2023-04-06T08:46:54.143Z,38.90
2023-04-06T08:50:57.295Z,39.20
2023-04-06T08:55:00.795Z,35.00
2023-04-06T08:59:04.871Z,37.20
2023-04-06T09:03:09.128Z,36.10
2023-04-06T09:07:13.783Z,31.90
2023-04-06T09:11:17.588Z,33.90
2023-04-06T09:15:24.588Z,32.10
2023-04-06T09:19:28.093Z,25.70
2023-04-06T09:23:32.047Z,18.10
2023-04-06T09:27:38.377Z,23.70
2023-04-06T09:31:42.752Z,14.30
2023-04-06T09:35:51.707Z,16.10
2023-04-06T09:40:09.219Z,18.60
2023-04-06T09:44:14.442Z,18.30
2023-04-06T09:48:19.201Z,18.90
2023-04-06T09:52:26.185Z,17.70
2023-04-06T09:56:33.742Z,16.40
2023-04-06T10:01:03.021Z,16.90
2023-04-06T10:05:14.071Z,16.20
2023-04-06T10:09:17.576Z,13.50
2023-04-06T10:13:21.174Z,13.80
2023-04-06T10:17:27.034Z,12.50
2023-04-06T10:21:33.704Z,11.70
2023-04-06T10:25:38.015Z,16.80
2023-04-06T10:29:46.296Z,18.30
2023-04-06T10:33:59.891Z,16.90
2023-04-06T10:38:04.636Z,18.00
2023-04-06T10:42:08.275Z,15.90
2023-04-06T10:46:11.997Z,16.70
2023-04-06T10:50:19.987Z,17.00
2023-04-06T10:54:25.743Z,18.40
2023-04-06T10:58:28.822Z,16.30
2023-04-06T11:02:32.567Z,18.00
2023-04-06T11:06:35.933Z,16.00
2023-04-06T11:10:38.872Z,14.70
2023-04-06T11:14:42.775Z,12.90
2023-04-06T11:18:58.101Z,17.00
2023-04-06T11:23:01.434Z,15.10
2023-04-06T11:27:06.149Z,15.70
2023-04-06T11:31:10.543Z,15.10
2023-04-06T11:35:24.125Z,14.80
2023-04-06T11:39:29.583Z,14.20
2023-04-06T11:43:32.839Z,15.00
2023-04-06T11:47:38.820Z,14.90
2023-04-06T11:51:42.019Z,11.40
2023-04-06T11:55:47.880Z,10.90
2023-04-06T11:59:51.161Z,9.50
2023-04-06T12:03:54.948Z,10.60
2023-04-06T12:08:01.082Z,10.10
2023-04-06T12:12:06.397Z,8.60
2023-04-06T12:16:09.519Z,9.80
2023-04-06T12:20:24.747Z,10.40
2023-04-06T12:28:32.970Z,10.80
2023-04-06T12:32:35.966Z,12.00
2023-04-06T12:36:39.988Z,11.10
2023-04-06T12:40:43.061Z,11.40
2023-04-06T12:44:46.407Z,11.40
2023-04-06T12:48:49.351Z,8.50
2023-04-06T12:52:52.388Z,8.50
2023-04-06T12:56:57.597Z,10.20
2023-04-06T13:01:04.046Z,10.00
2023-04-06T13:09:10.236Z,10.60
2023-04-06T13:13:13.276Z,9.20
2023-04-06T13:17:17.759Z,9.00
2023-04-06T13:21:21.945Z,8.10
2023-04-06T13:25:25.413Z,8.00
2023-04-06T13:29:28.387Z,8.50
2023-04-06T13:33:31.980Z,8.80
2023-04-06T13:37:35.878Z,9.00
2023-04-06T13:41:38.679Z,7.70
2023-04-06T13:45:41.677Z,7.90
2023-04-06T13:49:44.700Z,10.00
2023-04-06T13:53:47.580Z,8.50
2023-04-06T13:57:50.570Z,9.60
2023-04-06T14:01:53.896Z,8.90
2023-04-06T14:06:01.332Z,9.40
2023-04-06T14:10:14.856Z,9.70
2023-04-06T14:14:18.450Z,11.00
2023-04-06T14:18:22.280Z,8.60
2023-04-06T14:22:25.526Z,9.30
2023-04-06T14:26:28.681Z,10.40
2023-04-06T14:30:32.052Z,11.10
2023-04-06T14:34:38.408Z,9.20
2023-04-06T14:42:44.378Z,9.60
2023-04-06T14:46:47.369Z,9.40
2023-04-06T14:50:54.445Z,11.40
2023-04-06T14:54:57.319Z,10.10
2023-04-06T14:59:02.429Z,10.60
2023-04-06T15:03:05.761Z,10.20
2023-04-06T15:07:08.771Z,10.60
2023-04-06T15:11:12.815Z,10.90
2023-04-06T15:15:16.359Z,9.60
2023-04-06T15:19:19.297Z,9.40
2023-04-06T15:23:22.173Z,9.30
2023-04-06T15:27:25.608Z,9.40
2023-04-06T15:31:37.779Z,9.20
2023-04-06T15:35:43.560Z,10.20
2023-04-06T15:39:46.616Z,10.80
2023-04-06T15:43:52.125Z,8.00
2023-04-06T15:47:55.161Z,9.20
2023-04-06T15:51:57.999Z,9.20
2023-04-06T15:56:02.299Z,9.40
2023-04-06T16:00:06.159Z,10.30
2023-04-06T16:04:11.351Z,8.50
2023-04-06T16:08:17.168Z,10.50
2023-04-06T16:12:21.463Z,8.40
2023-04-06T16:16:24.502Z,9.00
2023-04-06T16:20:27.671Z,9.50
2023-04-06T16:24:30.657Z,8.80
2023-04-06T16:28:34.376Z,11.30
2023-04-06T16:32:37.651Z,10.90
2023-04-06T16:36:47.352Z,9.40
2023-04-06T16:41:04.989Z,9.30
2023-04-06T16:45:15.430Z,10.80
2023-04-06T16:49:44.687Z,11.50
2023-04-06T16:53:52.688Z,11.90
2023-04-06T16:57:57.460Z,12.10
2023-04-06T17:02:10.928Z,9.60
2023-04-06T17:06:16.366Z,10.20
2023-04-06T17:10:28.975Z,12.40
2023-04-06T17:14:43.699Z,10.60
2023-04-06T17:18:54.803Z,14.10
2023-04-06T17:23:05.140Z,13.30
2023-04-06T17:27:11.917Z,15.30
2023-04-06T17:31:27.261Z,13.70
2023-04-06T17:35:47.040Z,16.00
2023-04-06T17:44:18.521Z,16.80
2023-04-06T17:48:41.908Z,15.30
2023-04-06T17:53:08.248Z,15.40
2023-04-06T17:57:18.943Z,15.50
2023-04-06T18:01:22.770Z,18.10
2023-04-06T18:05:35.604Z,15.00
2023-04-06T18:09:46.595Z,16.10
2023-04-06T18:13:59.503Z,16.00
2023-04-06T18:18:09.932Z,20.10
2023-04-06T18:22:18.557Z,19.30
2023-04-06T18:26:25.905Z,16.40
2023-04-06T18:30:29.853Z,15.70
2023-04-06T18:34:33.614Z,14.00
2023-04-06T18:38:38.596Z,15.50
2023-04-06T18:42:41.513Z,16.60
2023-04-06T18:46:45.122Z,14.20
2023-04-06T18:51:00.315Z,17.40
2023-04-06T18:55:27.066Z,15.50
2023-04-06T18:59:46.575Z,16.70
2023-04-06T19:03:53.966Z,22.20
2023-04-06T19:07:57.132Z,23.20
2023-04-06T19:12:03.793Z,17.30
2023-04-06T19:16:28.619Z,21.50
2023-04-06T19:20:35.562Z,20.20
2023-04-06T19:24:45.661Z,16.30
2023-04-06T19:28:53.666Z,16.50
2023-04-06T19:32:58.006Z,17.00
2023-04-06T19:37:04.974Z,17.10
2023-04-06T19:41:15.360Z,17.20
2023-04-06T19:45:22.650Z,18.80
2023-04-06T19:49:30.408Z,20.10
2023-04-06T19:53:35.157Z,24.60
2023-04-06T19:57:42.145Z,24.60
2023-04-06T20:01:51.793Z,24.10
2023-04-06T20:05:56.778Z,22.30
2023-04-06T20:10:11.493Z,19.60
2023-04-06T20:14:20.259Z,20.60
2023-04-06T20:18:25.340Z,24.80
2023-04-06T20:22:38.057Z,22.00
2023-04-06T20:26:41.086Z,23.20
2023-04-06T20:30:44.105Z,23.40
2023-04-06T20:34:47.904Z,25.20
2023-04-06T20:38:51.081Z,21.40
2023-04-06T20:42:57.616Z,23.90
2023-04-06T20:47:00.797Z,19.10
2023-04-06T20:51:05.640Z,21.20
2023-04-06T20:55:09.072Z,21.00
2023-04-06T20:59:12.500Z,20.40
2023-04-06T21:03:17.457Z,22.90
2023-04-06T21:07:20.831Z,22.80
2023-04-06T21:11:23.635Z,23.00
2023-04-06T21:15:27.254Z,21.30
2023-04-06T21:19:30.378Z,23.20
2023-04-06T21:23:33.350Z,21.30
2023-04-06T21:27:36.309Z,19.80
2023-04-06T21:31:42.188Z,22.70
2023-04-06T21:35:45.559Z,21.80
2023-04-06T21:39:48.556Z,23.60
2023-04-06T21:43:51.448Z,21.20
2023-04-06T21:47:54.727Z,20.60
2023-04-06T21:51:57.768Z,33.60
2023-04-06T21:56:00.974Z,28.40
2023-04-06T22:00:10.380Z,27.10
2023-04-06T22:04:13.706Z,35.30
2023-04-06T22:08:25.464Z,29.30
2023-04-06T22:12:33.146Z,22.80
2023-04-06T22:16:36.275Z,23.70
2023-04-06T22:20:39.300Z,26.00
2023-04-06T22:24:42.389Z,22.40
2023-04-06T22:28:45.330Z,23.70
2023-04-06T22:32:48.292Z,26.50
2023-04-06T22:36:51.268Z,23.50
2023-04-06T22:40:54.222Z,23.20
2023-04-06T22:44:57.054Z,24.00
2023-04-06T22:48:59.978Z,27.50
2023-04-06T22:53:02.885Z,30.20
2023-04-06T22:57:06.052Z,27.20
2023-04-06T23:01:09.199Z,23.70
2023-04-06T23:05:12.501Z,25.70
2023-04-06T23:09:15.264Z,27.90
2023-04-06T23:13:17.991Z,31.40
2023-04-06T23:17:20.814Z,30.50
2023-04-06T23:21:23.696Z,31.60
2023-04-06T23:25:27.166Z,34.70
2023-04-06T23:29:30.186Z,35.20
2023-04-06T23:33:33.154Z,32.40
2023-04-06T23:37:36.145Z,31.50
2023-04-06T23:41:39.026Z,33.90
2023-04-06T23:45:42.776Z,35.60
2023-04-06T23:49:45.881Z,34.50
2023-04-06T23:53:48.632Z,32.20
2023-04-06T23:57:51.379Z,31.70
